createdAt,value
2023-04-22T00:03:35.837Z,18.62
2023-04-22T00:06:04.516Z,18.60
2023-04-22T00:08:33.290Z,18.58
2023-04-22T00:11:01.769Z,18.52
2023-04-22T00:13:29.945Z,18.47
2023-04-22T00:15:58.810Z,18.42
2023-04-22T00:18:27.592Z,18.35
2023-04-22T00:20:55.766Z,18.29
2023-04-22T00:23:25.383Z,18.24
2023-04-22T00:25:55.126Z,18.20
2023-04-22T00:28:23.705Z,18.15
2023-04-22T00:30:53.121Z,18.11
2023-04-22T00:33:21.985Z,18.08
2023-04-22T00:35:50.143Z,18.06
2023-04-22T00:38:18.217Z,18.03
2023-04-22T00:40:47.441Z,18.00
2023-04-22T00:43:17.240Z,17.97
2023-04-22T00:45:45.606Z,17.94
2023-04-22T00:48:14.358Z,17.91
2023-04-22T00:50:42.985Z,17.89
2023-04-22T00:53:11.770Z,17.86
2023-04-22T00:55:42.157Z,17.84
2023-04-22T00:58:11.129Z,17.82
2023-04-22T01:00:40.426Z,17.80
2023-04-22T01:03:10.644Z,17.77
2023-04-22T01:05:42.366Z,17.75
2023-04-22T01:08:12.490Z,17.72
2023-04-22T01:10:42.550Z,17.68
2023-04-22T01:13:11.093Z,17.66
2023-04-22T01:15:39.653Z,17.63
2023-04-22T01:18:09.038Z,17.61
2023-04-22T01:20:37.782Z,17.58
2023-04-22T01:23:09.078Z,17.55
2023-04-22T01:25:37.665Z,17.53
2023-04-22T01:28:06.873Z,17.51
2023-04-22T01:30:35.966Z,17.48
2023-04-22T01:33:05.059Z,17.46
2023-04-22T01:35:33.583Z,17.44
2023-04-22T01:38:04.525Z,17.43
2023-04-22T01:40:34.120Z,17.41
2023-04-22T01:43:03.109Z,17.40
2023-04-22T01:45:31.639Z,17.38
2023-04-22T01:48:00.372Z,17.36
2023-04-22T01:50:29.910Z,17.34
2023-04-22T01:53:00.193Z,17.30
2023-04-22T01:55:29.795Z,17.27
2023-04-22T01:57:59.403Z,17.25
2023-04-22T02:00:28.207Z,17.24
2023-04-22T02:02:57.780Z,17.23
2023-04-22T02:05:27.496Z,17.23
2023-04-22T02:07:57.038Z,17.24
2023-04-22T02:10:25.865Z,17.24
2023-04-22T02:12:55.388Z,17.24
2023-04-22T02:15:24.227Z,17.24
2023-04-22T02:17:53.082Z,17.22
2023-04-22T02:20:21.913Z,17.19
2023-04-22T02:22:50.779Z,17.15
2023-04-22T02:25:21.187Z,17.11
2023-04-22T02:27:50.274Z,17.08
2023-04-22T02:30:18.540Z,17.05
2023-04-22T02:32:47.105Z,17.03
2023-04-22T02:35:16.144Z,17.02
2023-04-22T02:37:44.686Z,17.00
2023-04-22T02:40:12.981Z,16.99
2023-04-22T02:42:41.263Z,16.97
2023-04-22T02:45:11.364Z,16.95
2023-04-22T02:47:40.275Z,16.92
2023-04-22T02:50:10.417Z,16.90
2023-04-22T02:52:39.100Z,16.89
2023-04-22T02:55:08.820Z,16.87
2023-04-22T02:57:37.744Z,16.85
2023-04-22T03:00:07.402Z,16.85
2023-04-22T03:02:36.231Z,16.82
2023-04-22T03:05:05.200Z,16.81
2023-04-22T03:07:33.820Z,16.78
2023-04-22T03:10:04.431Z,16.75
2023-04-22T03:12:32.947Z,16.73
2023-04-22T03:15:01.522Z,16.71
2023-04-22T03:17:29.709Z,16.69
2023-04-22T03:19:58.342Z,16.66
2023-04-22T03:22:27.272Z,16.65
2023-04-22T03:24:56.476Z,16.64
2023-04-22T03:27:25.070Z,16.64
2023-04-22T03:29:53.344Z,16.65
2023-04-22T03:32:22.909Z,16.65
2023-04-22T03:34:52.315Z,16.64
2023-04-22T03:37:20.667Z,16.62
2023-04-22T03:39:49.303Z,16.60
2023-04-22T03:42:17.978Z,16.59
2023-04-22T03:44:46.069Z,16.57
2023-04-22T03:47:14.103Z,16.55
2023-04-22T03:49:43.513Z,16.52
2023-04-22T03:52:11.604Z,16.49
2023-04-22T03:54:40.390Z,16.47
2023-04-22T03:57:09.103Z,16.46
2023-04-22T03:59:38.193Z,16.44
2023-04-22T04:02:07.256Z,16.44
2023-04-22T04:04:36.209Z,16.44
2023-04-22T04:07:06.243Z,16.43
2023-04-22T04:09:35.383Z,16.40
2023-04-22T04:12:04.927Z,16.38
2023-04-22T04:14:33.617Z,16.36
2023-04-22T04:17:01.886Z,16.34
2023-04-22T04:19:31.117Z,16.36
2023-04-22T04:22:01.874Z,16.36
2023-04-22T04:24:31.090Z,16.36
2023-04-22T04:26:59.705Z,16.36
2023-04-22T04:29:28.033Z,16.37
2023-04-22T04:31:56.748Z,16.37
2023-04-22T04:34:25.038Z,16.36
2023-04-22T04:36:53.554Z,16.35
2023-04-22T04:39:21.939Z,16.35
2023-04-22T04:41:50.256Z,16.34
2023-04-22T04:44:19.421Z,16.34
2023-04-22T04:46:48.749Z,16.34
2023-04-22T04:49:16.984Z,16.35
2023-04-22T04:51:46.131Z,16.36
2023-04-22T04:54:15.473Z,16.35
2023-04-22T04:56:44.124Z,16.33
2023-04-22T04:59:12.393Z,16.32
2023-04-22T05:01:41.371Z,16.32
2023-04-22T05:04:11.240Z,16.31
2023-04-22T05:06:39.876Z,16.30
2023-04-22T05:09:09.121Z,16.29
2023-04-22T05:11:37.338Z,16.29
2023-04-22T05:14:06.326Z,16.29
2023-04-22T05:16:35.002Z,16.28
2023-04-22T05:19:04.247Z,16.25
2023-04-22T05:21:32.461Z,16.23
2023-04-22T05:24:01.342Z,16.22
2023-04-22T05:26:29.755Z,16.21
2023-04-22T05:28:58.023Z,16.20
2023-04-22T05:31:26.422Z,16.19
2023-04-22T05:33:54.576Z,16.19
2023-04-22T05:36:23.619Z,16.19
2023-04-22T05:38:53.196Z,16.21
2023-04-22T05:41:21.396Z,16.22
2023-04-22T05:43:50.472Z,16.24
2023-04-22T05:46:18.885Z,16.26
2023-04-22T05:48:47.019Z,16.28
2023-04-22T05:51:15.747Z,16.30
2023-04-22T05:53:43.968Z,16.33
2023-04-22T05:56:12.036Z,16.36
2023-04-22T05:58:40.600Z,16.40
2023-04-22T06:01:09.942Z,16.44
2023-04-22T06:03:38.856Z,16.48
2023-04-22T06:06:08.044Z,16.51
2023-04-22T06:08:36.270Z,16.55
2023-04-22T06:11:05.149Z,16.58
2023-04-22T06:13:33.803Z,16.61
2023-04-22T06:16:02.772Z,16.65
2023-04-22T06:18:31.161Z,16.68
2023-04-22T06:20:59.859Z,16.72
2023-04-22T06:23:28.240Z,16.75
2023-04-22T06:25:56.486Z,16.78
2023-04-22T06:28:24.902Z,16.82
2023-04-22T06:30:54.200Z,16.85
2023-04-22T06:33:22.905Z,16.88
2023-04-22T06:35:51.407Z,16.92
2023-04-22T06:38:20.144Z,16.95
2023-04-22T06:40:48.879Z,16.99
2023-04-22T06:43:17.345Z,17.04
2023-04-22T06:45:45.967Z,17.08
2023-04-22T06:48:14.672Z,17.13
2023-04-22T06:50:43.862Z,17.17
2023-04-22T06:53:12.333Z,17.22
2023-04-22T06:55:41.165Z,17.26
2023-04-22T06:58:10.583Z,17.31
2023-04-22T07:00:39.226Z,17.35
2023-04-22T07:03:07.501Z,17.39
2023-04-22T07:05:37.816Z,17.42
2023-04-22T07:08:06.819Z,17.46
2023-04-22T07:10:35.730Z,17.51
2023-04-22T07:13:04.041Z,17.57
2023-04-22T07:15:32.817Z,17.62
2023-04-22T07:18:01.398Z,17.67
2023-04-22T07:20:29.583Z,17.72
2023-04-22T07:22:58.311Z,17.78
2023-04-22T07:25:27.614Z,17.85
2023-04-22T07:27:56.755Z,17.92
2023-04-22T07:30:25.227Z,17.99
2023-04-22T07:32:54.049Z,18.07
2023-04-22T07:35:22.447Z,18.16
2023-04-22T07:37:51.523Z,18.25
2023-04-22T07:40:19.858Z,18.37
2023-04-22T07:42:48.015Z,18.50
2023-04-22T07:45:16.709Z,18.63
2023-04-22T07:47:44.792Z,18.74
2023-04-22T07:50:13.558Z,18.82
2023-04-22T07:52:41.661Z,18.90
2023-04-22T07:55:10.457Z,18.96
2023-04-22T07:57:39.146Z,19.03
2023-04-22T08:00:10.196Z,19.09
2023-04-22T08:02:39.545Z,19.14
2023-04-22T08:05:10.008Z,19.17
2023-04-22T08:07:38.176Z,19.22
2023-04-22T08:10:07.655Z,19.29
2023-04-22T08:12:36.328Z,19.38
2023-04-22T08:15:05.245Z,19.50
2023-04-22T08:17:33.545Z,19.62
2023-04-22T08:20:02.518Z,19.77
2023-04-22T08:22:31.320Z,19.92
2023-04-22T08:25:00.564Z,20.09
2023-04-22T08:27:30.418Z,20.24
2023-04-22T08:29:58.757Z,20.42
2023-04-22T08:32:27.163Z,20.62
2023-04-22T08:35:03.867Z,20.80
2023-04-22T08:37:34.729Z,20.97
2023-04-22T08:40:03.705Z,21.07
2023-04-22T08:42:31.906Z,21.13
2023-04-22T08:45:01.505Z,21.20
2023-04-22T08:47:32.387Z,21.31
2023-04-22T08:50:02.926Z,21.42
2023-04-22T08:52:31.946Z,21.53
2023-04-22T08:55:01.467Z,21.66
2023-04-22T08:57:31.649Z,21.78
2023-04-22T09:00:00.954Z,21.86
2023-04-22T09:02:32.632Z,21.91
2023-04-22T09:05:03.265Z,21.91
2023-04-22T09:07:33.734Z,21.90
2023-04-22T09:10:02.964Z,21.91
2023-04-22T09:12:31.783Z,21.94
2023-04-22T09:15:01.100Z,21.97
2023-04-22T09:17:37.023Z,21.95
2023-04-22T09:20:07.594Z,21.91
2023-04-22T09:22:48.681Z,21.87
2023-04-22T09:25:21.725Z,21.79
2023-04-22T09:27:56.032Z,21.75
2023-04-22T09:30:26.552Z,21.74
2023-04-22T09:32:57.667Z,21.75
2023-04-22T09:35:27.402Z,21.78
2023-04-22T09:37:56.660Z,21.79
2023-04-22T09:40:26.837Z,21.81
2023-04-22T09:42:58.437Z,21.85
2023-04-22T09:45:38.036Z,21.92
2023-04-22T09:48:13.383Z,22.01
2023-04-22T09:50:48.720Z,22.06
2023-04-22T09:53:19.678Z,22.06
2023-04-22T09:55:55.377Z,22.04
2023-04-22T09:58:24.105Z,22.04
2023-04-22T10:00:55.274Z,22.05
2023-04-22T10:03:26.027Z,22.08
2023-04-22T10:05:54.986Z,22.11
2023-04-22T10:08:26.837Z,22.15
2023-04-22T10:10:56.027Z,22.15
2023-04-22T10:13:25.274Z,22.11
2023-04-22T10:15:56.264Z,22.03
2023-04-22T10:18:27.479Z,21.99
2023-04-22T10:20:59.139Z,21.96
2023-04-22T10:23:32.935Z,21.95
2023-04-22T10:26:01.850Z,21.93
2023-04-22T10:28:30.543Z,21.91
2023-04-22T10:31:06.267Z,21.86
2023-04-22T10:33:36.536Z,21.83
2023-04-22T10:36:20.753Z,21.78
2023-04-22T10:38:58.344Z,21.74
2023-04-22T10:41:35.015Z,21.74
2023-04-22T10:44:14.079Z,21.73
2023-04-22T10:47:00.854Z,21.71
2023-04-22T10:49:31.459Z,21.65
2023-04-22T10:52:01.142Z,21.56
2023-04-22T10:54:32.639Z,21.46
2023-04-22T10:57:15.480Z,21.42
2023-04-22T10:59:50.520Z,21.37
2023-04-22T11:02:20.387Z,21.30
2023-04-22T11:04:50.989Z,21.23
2023-04-22T11:07:23.009Z,21.19
2023-04-22T11:10:10.386Z,21.20
2023-04-22T11:12:44.476Z,21.26
2023-04-22T11:15:18.600Z,21.33
2023-04-22T11:17:52.504Z,21.44
2023-04-22T11:20:21.701Z,21.52
2023-04-22T11:22:55.479Z,21.55
2023-04-22T11:25:26.454Z,21.58
2023-04-22T11:27:54.744Z,21.57
2023-04-22T11:30:25.373Z,21.57
2023-04-22T11:32:57.600Z,21.61
2023-04-22T11:35:29.071Z,21.72
2023-04-22T11:37:58.973Z,21.86
2023-04-22T11:40:31.650Z,22.05
2023-04-22T11:43:03.461Z,22.30
2023-04-22T11:45:34.229Z,22.43
2023-04-22T11:48:06.515Z,22.49
2023-04-22T11:50:39.143Z,22.56
2023-04-22T11:53:20.022Z,22.61
2023-04-22T11:55:51.402Z,22.67
2023-04-22T11:58:25.633Z,22.71
2023-04-22T12:00:55.888Z,22.75
2023-04-22T12:03:32.369Z,22.81
2023-04-22T12:06:04.531Z,22.93
2023-04-22T12:08:38.677Z,23.11
2023-04-22T12:11:10.401Z,23.25
2023-04-22T12:13:44.343Z,23.33
2023-04-22T12:16:16.434Z,23.24
2023-04-22T12:18:50.235Z,23.11
2023-04-22T12:21:26.501Z,22.97
2023-04-22T12:24:02.662Z,22.84
2023-04-22T12:26:31.149Z,22.78
2023-04-22T12:29:01.154Z,22.88
2023-04-22T12:31:29.986Z,23.07
2023-04-22T12:33:59.734Z,23.32
2023-04-22T12:36:28.624Z,23.48
2023-04-22T12:38:56.866Z,23.60
2023-04-22T12:41:25.843Z,23.80
2023-04-22T12:43:54.660Z,23.99
2023-04-22T12:46:22.824Z,24.14
2023-04-22T12:48:51.396Z,24.27
2023-04-22T12:51:19.870Z,24.43
2023-04-22T12:53:48.866Z,24.56
2023-04-22T12:56:17.817Z,24.69
2023-04-22T12:58:47.783Z,24.81
2023-04-22T13:01:16.375Z,24.88
2023-04-22T13:03:45.261Z,24.99
2023-04-22T13:06:15.050Z,25.07
2023-04-22T13:08:43.764Z,25.12
2023-04-22T13:11:12.477Z,25.16
2023-04-22T13:13:41.842Z,25.24
2023-04-22T13:16:11.199Z,25.33
2023-04-22T13:18:39.565Z,25.38
2023-04-22T13:21:08.654Z,25.38
2023-04-22T13:23:36.971Z,25.36
2023-04-22T13:26:06.271Z,25.37
2023-04-22T13:28:34.890Z,25.42
2023-04-22T13:31:03.517Z,25.47
2023-04-22T13:33:33.017Z,25.51
2023-04-22T13:36:02.215Z,25.57
2023-04-22T13:38:30.678Z,25.44
2023-04-22T13:41:01.189Z,25.20
2023-04-22T13:43:31.658Z,25.01
2023-04-22T13:46:00.595Z,24.91
2023-04-22T13:48:29.457Z,24.91
2023-04-22T13:50:58.451Z,24.92
2023-04-22T13:53:27.494Z,24.95
2023-04-22T13:55:55.667Z,24.96
2023-04-22T13:58:23.800Z,24.90
2023-04-22T14:00:52.666Z,24.85
2023-04-22T14:03:21.621Z,24.78
2023-04-22T14:05:50.491Z,24.69
2023-04-22T14:08:19.165Z,24.58
2023-04-22T14:10:48.593Z,24.49
2023-04-22T14:13:18.140Z,24.45
2023-04-22T14:15:47.713Z,24.47
2023-04-22T14:18:18.004Z,24.53
2023-04-22T14:20:46.175Z,24.63
2023-04-22T14:23:14.357Z,24.75
2023-04-22T14:25:44.126Z,24.77
2023-04-22T14:28:14.101Z,24.73
2023-04-22T14:30:43.018Z,24.76
2023-04-22T14:33:11.824Z,24.79
2023-04-22T14:35:39.999Z,24.75
2023-04-22T14:38:11.298Z,24.72
2023-04-22T14:40:40.076Z,24.69
2023-04-22T14:43:08.784Z,24.65
2023-04-22T14:45:37.039Z,24.62
2023-04-22T14:48:05.317Z,24.60
2023-04-22T14:50:33.674Z,24.57
2023-04-22T14:53:01.983Z,24.59
2023-04-22T14:55:30.096Z,24.63
2023-04-22T14:57:58.842Z,24.67
2023-04-22T15:00:28.539Z,24.63
2023-04-22T15:02:58.343Z,24.53
2023-04-22T15:05:27.055Z,24.33
2023-04-22T15:07:55.773Z,24.11
2023-04-22T15:10:25.421Z,23.93
2023-04-22T15:12:54.535Z,23.76
2023-04-22T15:15:23.451Z,23.71
2023-04-22T15:17:52.223Z,23.75
2023-04-22T15:20:21.503Z,23.74
2023-04-22T15:22:50.335Z,23.68
2023-04-22T15:25:19.364Z,23.63
2023-04-22T15:27:48.708Z,23.63
2023-04-22T15:30:17.015Z,23.70
2023-04-22T15:32:45.347Z,23.75
2023-04-22T15:35:13.474Z,23.82
2023-04-22T15:37:42.509Z,23.74
2023-04-22T15:40:10.813Z,23.59
2023-04-22T15:42:39.217Z,23.48
2023-04-22T15:45:08.857Z,23.46
2023-04-22T15:47:39.846Z,23.49
2023-04-22T15:50:10.153Z,23.57
2023-04-22T15:52:39.229Z,23.69
2023-04-22T15:55:08.241Z,23.77
2023-04-22T15:57:37.592Z,23.78
2023-04-22T16:00:11.851Z,23.73
2023-04-22T16:02:43.955Z,23.67
2023-04-22T16:05:12.366Z,23.64
2023-04-22T16:07:40.932Z,23.67
2023-04-22T16:10:10.167Z,23.66
2023-04-22T16:12:38.687Z,23.60
2023-04-22T16:15:08.192Z,23.50
2023-04-22T16:17:38.344Z,23.38
2023-04-22T16:20:08.454Z,23.28
2023-04-22T16:22:36.784Z,23.18
2023-04-22T16:25:06.051Z,23.08
2023-04-22T16:27:34.303Z,23.03
2023-04-22T16:30:02.573Z,22.98
2023-04-22T16:32:31.566Z,22.88
2023-04-22T16:35:00.102Z,22.74
2023-04-22T16:37:29.525Z,22.63
2023-04-22T16:39:58.157Z,22.53
2023-04-22T16:42:27.002Z,22.36
2023-04-22T16:44:55.686Z,22.19
2023-04-22T16:47:24.890Z,22.05
2023-04-22T16:49:53.580Z,21.94
2023-04-22T16:52:22.726Z,21.89
2023-04-22T16:54:51.199Z,21.84
2023-04-22T16:57:19.959Z,21.78
2023-04-22T16:59:48.845Z,21.74
2023-04-22T17:02:17.657Z,21.69
2023-04-22T17:04:45.997Z,21.65
2023-04-22T17:07:14.781Z,21.60
2023-04-22T17:09:43.506Z,21.54
2023-04-22T17:12:13.055Z,21.54
2023-04-22T17:14:41.219Z,21.56
2023-04-22T17:17:09.806Z,21.59
2023-04-22T17:19:38.194Z,21.63
2023-04-22T17:22:07.990Z,21.66
2023-04-22T17:24:36.671Z,21.73
2023-04-22T17:27:06.107Z,21.83
2023-04-22T17:29:34.801Z,21.93
2023-04-22T17:32:03.055Z,22.01
2023-04-22T17:34:31.788Z,22.08
2023-04-22T17:36:59.955Z,22.14
2023-04-22T17:39:28.214Z,22.19
2023-04-22T17:41:56.634Z,22.21
2023-04-22T17:44:25.726Z,22.19
2023-04-22T17:46:54.447Z,22.17
2023-04-22T17:49:22.791Z,22.17
2023-04-22T17:51:52.583Z,22.12
2023-04-22T17:54:21.676Z,22.08
2023-04-22T17:56:52.499Z,22.06
2023-04-22T17:59:22.163Z,22.02
2023-04-22T18:01:52.340Z,21.99
2023-04-22T18:04:20.987Z,21.94
2023-04-22T18:06:49.262Z,21.92
2023-04-22T18:09:18.020Z,21.90
2023-04-22T18:11:46.924Z,21.86
2023-04-22T18:14:15.862Z,21.84
2023-04-22T18:16:44.020Z,21.80
2023-04-22T18:19:12.110Z,21.77
2023-04-22T18:21:46.595Z,21.74
2023-04-22T18:24:22.305Z,21.70
2023-04-22T18:26:50.538Z,21.67
2023-04-22T18:29:19.372Z,21.63
2023-04-22T18:31:48.794Z,21.55
2023-04-22T18:34:18.231Z,21.45
2023-04-22T18:36:46.940Z,21.37
2023-04-22T18:39:15.159Z,21.33
2023-04-22T18:41:43.524Z,21.28
2023-04-22T18:44:12.134Z,21.24
2023-04-22T18:46:41.848Z,21.23
2023-04-22T18:49:10.263Z,21.22
2023-04-22T18:51:39.943Z,21.22
2023-04-22T18:54:10.603Z,21.21
2023-04-22T18:56:40.123Z,21.20
2023-04-22T18:59:08.908Z,21.20
2023-04-22T19:01:38.033Z,21.19
2023-04-22T19:04:06.283Z,21.19
2023-04-22T19:06:35.175Z,21.18
2023-04-22T19:09:04.549Z,21.17
2023-04-22T19:11:33.435Z,21.16
2023-04-22T19:14:02.111Z,21.16
2023-04-22T19:16:30.740Z,21.15
2023-04-22T19:18:59.677Z,21.14
2023-04-22T19:21:27.946Z,21.13
2023-04-22T19:23:56.331Z,21.12
2023-04-22T19:26:25.383Z,21.11
2023-04-22T19:28:54.529Z,21.10
2023-04-22T19:31:23.032Z,21.08
2023-04-22T19:33:52.941Z,21.07
2023-04-22T19:36:21.105Z,21.05
2023-04-22T19:38:50.274Z,21.02
2023-04-22T19:41:18.512Z,21.01
2023-04-22T19:43:47.707Z,21.00
2023-04-22T19:46:16.153Z,20.98
2023-04-22T19:48:45.046Z,20.97
2023-04-22T19:51:13.867Z,20.96
2023-04-22T19:53:43.638Z,20.95
2023-04-22T19:56:13.019Z,20.95
2023-04-22T19:58:42.786Z,20.94
2023-04-22T20:01:12.193Z,20.95
2023-04-22T20:03:41.262Z,20.95
2023-04-22T20:06:12.440Z,20.94
2023-04-22T20:08:42.607Z,20.94
2023-04-22T20:11:11.637Z,20.92
2023-04-22T20:13:41.254Z,20.91
2023-04-22T20:16:09.890Z,20.91
2023-04-22T20:18:38.480Z,20.90
2023-04-22T20:21:08.881Z,20.89
2023-04-22T20:23:39.713Z,20.87
2023-04-22T20:26:08.513Z,20.85
2023-04-22T20:28:43.127Z,20.83
2023-04-22T20:31:13.651Z,20.82
2023-04-22T20:33:42.024Z,20.79
2023-04-22T20:36:13.873Z,20.78
2023-04-22T20:38:43.220Z,20.77
2023-04-22T20:41:11.527Z,20.76
2023-04-22T20:43:41.600Z,20.74
2023-04-22T20:46:11.195Z,20.72
2023-04-22T20:48:40.463Z,20.71
2023-04-22T20:51:09.134Z,20.69
2023-04-22T20:53:38.010Z,20.67
2023-04-22T20:56:06.897Z,20.64
2023-04-22T20:58:35.819Z,20.61
2023-04-22T21:01:04.588Z,20.60
2023-04-22T21:03:34.045Z,20.59
2023-04-22T21:06:03.211Z,20.57
2023-04-22T21:08:35.558Z,20.55
2023-04-22T21:11:04.105Z,20.54
2023-04-22T21:13:32.969Z,20.53
2023-04-22T21:16:07.713Z,20.51
2023-04-22T21:18:39.812Z,20.51
2023-04-22T21:21:10.023Z,20.51
2023-04-22T21:23:41.303Z,20.49
2023-04-22T21:26:11.044Z,20.49
2023-04-22T21:28:40.665Z,20.47
2023-04-22T21:31:09.329Z,20.45
2023-04-22T21:33:38.162Z,20.45
2023-04-22T21:36:07.078Z,20.44
2023-04-22T21:38:35.355Z,20.43
2023-04-22T21:41:04.507Z,20.42
2023-04-22T21:43:33.617Z,20.40
2023-04-22T21:46:02.552Z,20.40
2023-04-22T21:48:31.516Z,20.39
2023-04-22T21:50:59.978Z,20.37
2023-04-22T21:53:29.175Z,20.38
2023-04-22T21:55:58.240Z,20.37
2023-04-22T21:58:27.316Z,20.37
2023-04-22T22:00:55.922Z,20.36
2023-04-22T22:03:25.691Z,20.35
2023-04-22T22:05:54.194Z,20.34
2023-04-22T22:08:23.171Z,20.34
2023-04-22T22:10:52.485Z,20.32
2023-04-22T22:13:20.546Z,20.32
2023-04-22T22:15:49.121Z,20.31
2023-04-22T22:18:19.043Z,20.30
2023-04-22T22:20:47.540Z,20.29
2023-04-22T22:23:19.544Z,20.27
2023-04-22T22:25:49.125Z,20.26
2023-04-22T22:28:18.318Z,20.25
2023-04-22T22:30:46.937Z,20.24
2023-04-22T22:33:15.297Z,20.23
2023-04-22T22:35:44.126Z,20.21
2023-04-22T22:38:12.802Z,20.21
2023-04-22T22:40:42.267Z,20.18
2023-04-22T22:43:11.326Z,20.17
2023-04-22T22:45:40.589Z,20.15
2023-04-22T22:48:09.600Z,20.13
2023-04-22T22:50:38.357Z,20.12
2023-04-22T22:53:07.213Z,20.11
2023-04-22T22:55:36.201Z,20.11
2023-04-22T22:58:04.929Z,20.10
2023-04-22T23:00:33.618Z,20.09
2023-04-22T23:03:03.848Z,20.09
2023-04-22T23:05:32.472Z,20.09
2023-04-22T23:08:00.858Z,20.08
2023-04-22T23:10:29.389Z,20.06
2023-04-22T23:12:58.876Z,20.05
2023-04-22T23:15:27.618Z,20.04
2023-04-22T23:17:56.982Z,20.03
2023-04-22T23:20:26.154Z,20.03
2023-04-22T23:22:54.921Z,20.03
2023-04-22T23:25:24.092Z,20.04
2023-04-22T23:27:53.059Z,20.03
2023-04-22T23:30:22.086Z,20.02
2023-04-22T23:32:52.400Z,20.01
2023-04-22T23:35:22.670Z,20.00
2023-04-22T23:37:52.763Z,19.99
2023-04-22T23:40:20.942Z,19.98
2023-04-22T23:42:49.742Z,19.97
2023-04-22T23:45:19.279Z,19.94
2023-04-22T23:47:48.331Z,19.91
2023-04-22T23:50:17.788Z,19.87
2023-04-22T23:52:46.632Z,19.83
2023-04-22T23:55:15.770Z,19.79
2023-04-22T23:57:44.256Z,19.76
